sensor_id;sensor_type;location;lat;lon;timestamp;pressure;altitude;pressure_sealevel;temperature;humidity
9325;BME280;4701;51.566;6.776;2023-04-20T07:03:40;101501.03;;;7.38;66.85
9325;BME280;4701;51.566;6.776;2023-04-20T07:06:43;101498.44;;;7.43;67.43
9325;BME280;4701;51.566;6.776;2023-04-20T07:09:44;101511.09;;;7.49;67.84
9325;BME280;4701;51.566;6.776;2023-04-20T07:12:46;101503.97;;;7.54;67.98
9325;BME280;4701;51.566;6.776;2023-04-20T07:15:48;101508.47;;;7.60;67.79
9325;BME280;4701;51.566;6.776;2023-04-20T07:18:51;101512.75;;;7.68;67.94
9325;BME280;4701;51.566;6.776;2023-04-20T07:21:53;101505.59;;;7.74;67.82
9325;BME280;4701;51.566;6.776;2023-04-20T07:24:55;101514.69;;;7.79;67.58
9325;BME280;4701;51.566;6.776;2023-04-20T07:27:57;101515.66;;;7.85;67.42
9325;BME280;4701;51.566;6.776;2023-04-20T07:30:58;101519.56;;;7.89;66.88
9325;BME280;4701;51.566;6.776;2023-04-20T07:34:02;101518.03;;;7.93;66.54
9325;BME280;4701;51.566;6.776;2023-04-20T07:37:03;101513.81;;;7.97;66.84
9325;BME280;4701;51.566;6.776;2023-04-20T07:40:06;101520.66;;;7.99;66.45
9325;BME280;4701;51.566;6.776;2023-04-20T07:43:08;101502.25;;;8.02;66.04
9325;BME280;4701;51.566;6.776;2023-04-20T07:46:18;101504.53;;;8.05;65.80
9325;BME280;4701;51.566;6.776;2023-04-20T07:49:22;101508.41;;;8.09;65.97
9325;BME280;4701;51.566;6.776;2023-04-20T07:52:23;101501.47;;;8.13;65.96
9325;BME280;4701;51.566;6.776;2023-04-20T07:55:25;101508.91;;;8.17;66.19
9325;BME280;4701;51.566;6.776;2023-04-20T07:58:27;101494.03;;;8.20;66.24
9325;BME280;4701;51.566;6.776;2023-04-20T08:01:29;101502.09;;;8.26;66.13
9325;BME280;4701;51.566;6.776;2023-04-20T08:04:32;101502.47;;;8.30;65.83
9325;BME280;4701;51.566;6.776;2023-04-20T08:07:34;101497.44;;;8.33;65.22
9325;BME280;4701;51.566;6.776;2023-04-20T08:10:36;101492.56;;;8.35;65.36
9325;BME280;4701;51.566;6.776;2023-04-20T08:13:38;101489.41;;;8.39;65.37
9325;BME280;4701;51.566;6.776;2023-04-20T08:16:40;101478.06;;;8.42;65.12
9325;BME280;4701;51.566;6.776;2023-04-20T08:19:43;101487.63;;;8.44;65.09
9325;BME280;4701;51.566;6.776;2023-04-20T08:22:45;101479.84;;;8.48;65.11
9325;BME280;4701;51.566;6.776;2023-04-20T08:25:47;101477.47;;;8.51;64.52
9325;BME280;4701;51.566;6.776;2023-04-20T08:28:49;101473.47;;;8.54;64.87
9325;BME280;4701;51.566;6.776;2023-04-20T08:31:51;101469.22;;;8.58;64.83
9325;BME280;4701;51.566;6.776;2023-04-20T08:34:54;101467.66;;;8.62;64.67
9325;BME280;4701;51.566;6.776;2023-04-20T08:37:56;101463.44;;;8.66;64.45
9325;BME280;4701;51.566;6.776;2023-04-20T08:40:58;101476.53;;;8.69;64.69
9325;BME280;4701;51.566;6.776;2023-04-20T08:44:00;101473.13;;;8.73;64.12
9325;BME280;4701;51.566;6.776;2023-04-20T08:47:02;101475.13;;;8.78;64.01
9325;BME280;4701;51.566;6.776;2023-04-20T08:50:07;101471.69;;;8.83;64.33
9325;BME280;4701;51.566;6.776;2023-04-20T08:53:09;101472.88;;;8.87;64.14
9325;BME280;4701;51.566;6.776;2023-04-20T08:56:11;101474.06;;;8.91;63.82
9325;BME280;4701;51.566;6.776;2023-04-20T08:59:13;101465.41;;;8.94;64.05
9325;BME280;4701;51.566;6.776;2023-04-20T09:02:16;101471.44;;;8.96;63.74
9325;BME280;4701;51.566;6.776;2023-04-20T09:05:26;101472.03;;;8.98;63.76
9325;BME280;4701;51.566;6.776;2023-04-20T09:08:36;101469.09;;;8.99;63.97
9325;BME280;4701;51.566;6.776;2023-04-20T09:11:41;101466.38;;;8.99;63.63
9325;BME280;4701;51.566;6.776;2023-04-20T09:14:43;101471.56;;;9.01;63.50
9325;BME280;4701;51.566;6.776;2023-04-20T09:17:45;101461.53;;;9.01;63.71
9325;BME280;4701;51.566;6.776;2023-04-20T09:20:48;101458.81;;;9.01;63.07
9325;BME280;4701;51.566;6.776;2023-04-20T09:23:57;101455.81;;;9.03;63.39
9325;BME280;4701;51.566;6.776;2023-04-20T09:27:00;101455.00;;;9.02;63.04
9325;BME280;4701;51.566;6.776;2023-04-20T09:30:02;101465.03;;;9.02;62.77
9325;BME280;4701;51.566;6.776;2023-04-20T09:33:04;101457.72;;;9.02;62.63
9325;BME280;4701;51.566;6.776;2023-04-20T09:36:09;101456.31;;;9.00;62.85
9325;BME280;4701;51.566;6.776;2023-04-20T09:39:13;101454.66;;;8.99;63.01
9325;BME280;4701;51.566;6.776;2023-04-20T09:42:16;101459.28;;;8.98;62.77
9325;BME280;4701;51.566;6.776;2023-04-20T09:45:19;101461.16;;;8.98;62.95
9325;BME280;4701;51.566;6.776;2023-04-20T09:48:21;101458.69;;;8.96;63.07
9325;BME280;4701;51.566;6.776;2023-04-20T09:51:26;101460.78;;;8.94;63.39
9325;BME280;4701;51.566;6.776;2023-04-20T09:54:31;101455.63;;;8.93;63.00
9325;BME280;4701;51.566;6.776;2023-04-20T09:57:33;101460.22;;;8.92;63.18
9325;BME280;4701;51.566;6.776;2023-04-20T10:00:35;101457.50;;;8.92;63.08
9325;BME280;4701;51.566;6.776;2023-04-20T10:03:40;101456.41;;;8.93;63.43
9325;BME280;4701;51.566;6.776;2023-04-20T10:06:52;101470.59;;;8.95;63.76
9325;BME280;4701;51.566;6.776;2023-04-20T10:10:02;101489.41;;;8.97;64.24
9325;BME280;4701;51.566;6.776;2023-04-20T10:13:05;101475.34;;;9.00;65.64
9325;BME280;4701;51.566;6.776;2023-04-20T10:16:16;101468.84;;;9.01;66.60
9325;BME280;4701;51.566;6.776;2023-04-20T10:19:18;101461.16;;;8.98;66.56
9325;BME280;4701;51.566;6.776;2023-04-20T10:22:27;101454.06;;;8.97;67.24
9325;BME280;4701;51.566;6.776;2023-04-20T10:25:32;101439.66;;;8.96;68.35
9325;BME280;4701;51.566;6.776;2023-04-20T10:28:37;101445.44;;;9.00;68.64
9325;BME280;4701;51.566;6.776;2023-04-20T10:31:40;101436.78;;;9.03;69.51
9325;BME280;4701;51.566;6.776;2023-04-20T10:34:42;101435.25;;;9.07;70.31
9325;BME280;4701;51.566;6.776;2023-04-20T10:37:50;101439.97;;;9.11;70.51
9325;BME280;4701;51.566;6.776;2023-04-20T10:40:52;101437.59;;;9.15;71.13
9325;BME280;4701;51.566;6.776;2023-04-20T10:43:54;101430.59;;;9.19;70.96
9325;BME280;4701;51.566;6.776;2023-04-20T10:46:56;101415.69;;;9.22;71.26
9325;BME280;4701;51.566;6.776;2023-04-20T10:50:08;101423.97;;;9.27;71.40
9325;BME280;4701;51.566;6.776;2023-04-20T10:53:20;101430.34;;;9.32;71.21
9325;BME280;4701;51.566;6.776;2023-04-20T10:56:22;101425.81;;;9.38;71.13
9325;BME280;4701;51.566;6.776;2023-04-20T10:59:27;101424.03;;;9.43;70.38
9325;BME280;4701;51.566;6.776;2023-04-20T11:02:29;101418.69;;;9.48;70.44
9325;BME280;4701;51.566;6.776;2023-04-20T11:05:31;101414.16;;;9.54;70.19
9325;BME280;4701;51.566;6.776;2023-04-20T11:08:38;101413.75;;;9.62;70.04
9325;BME280;4701;51.566;6.776;2023-04-20T11:11:41;101413.88;;;9.67;69.54
9325;BME280;4701;51.566;6.776;2023-04-20T11:14:51;101409.34;;;9.73;69.17
9325;BME280;4701;51.566;6.776;2023-04-20T11:17:53;101402.06;;;9.78;68.78
9325;BME280;4701;51.566;6.776;2023-04-20T11:20:55;101399.69;;;9.82;67.71
9325;BME280;4701;51.566;6.776;2023-04-20T11:23:58;101395.66;;;9.84;67.69
9325;BME280;4701;51.566;6.776;2023-04-20T11:27:01;101394.31;;;9.87;67.25
9325;BME280;4701;51.566;6.776;2023-04-20T11:30:05;101393.59;;;9.92;67.23
9325;BME280;4701;51.566;6.776;2023-04-20T11:33:08;101389.31;;;9.96;66.73
9325;BME280;4701;51.566;6.776;2023-04-20T11:36:18;101388.81;;;9.99;66.50
9325;BME280;4701;51.566;6.776;2023-04-20T11:39:25;101387.28;;;10.03;66.26
9325;BME280;4701;51.566;6.776;2023-04-20T11:42:27;101378.34;;;10.07;65.97
9325;BME280;4701;51.566;6.776;2023-04-20T11:45:30;101380.34;;;10.12;66.31
9325;BME280;4701;51.566;6.776;2023-04-20T11:48:33;101382.09;;;10.18;66.14
9325;BME280;4701;51.566;6.776;2023-04-20T11:51:35;101385.72;;;10.23;65.11
9325;BME280;4701;51.566;6.776;2023-04-20T11:54:38;101373.25;;;10.28;64.42
9325;BME280;4701;51.566;6.776;2023-04-20T11:57:40;101365.16;;;10.33;64.29
9325;BME280;4701;51.566;6.776;2023-04-20T12:00:42;101381.00;;;10.36;63.85
9325;BME280;4701;51.566;6.776;2023-04-20T12:03:44;101372.06;;;10.40;62.95
9325;BME280;4701;51.566;6.776;2023-04-20T12:06:46;101379.50;;;10.45;62.94
9325;BME280;4701;51.566;6.776;2023-04-20T12:09:49;101374.59;;;10.47;62.88
9325;BME280;4701;51.566;6.776;2023-04-20T12:12:51;101378.50;;;10.51;62.55
9325;BME280;4701;51.566;6.776;2023-04-20T12:15:53;101378.84;;;10.54;62.66
9325;BME280;4701;51.566;6.776;2023-04-20T12:18:55;101382.69;;;10.58;61.88
9325;BME280;4701;51.566;6.776;2023-04-20T12:21:57;101372.13;;;10.62;62.04
9325;BME280;4701;51.566;6.776;2023-04-20T12:25:00;101371.69;;;10.70;62.12
9325;BME280;4701;51.566;6.776;2023-04-20T12:28:02;101380.81;;;10.81;61.63
9325;BME280;4701;51.566;6.776;2023-04-20T12:31:06;101361.59;;;10.92;61.75
9325;BME280;4701;51.566;6.776;2023-04-20T12:34:08;101361.50;;;11.04;61.52
9325;BME280;4701;51.566;6.776;2023-04-20T12:37:10;101359.44;;;11.16;61.09
9325;BME280;4701;51.566;6.776;2023-04-20T12:40:13;101361.25;;;11.32;61.03
9325;BME280;4701;51.566;6.776;2023-04-20T12:43:15;101366.88;;;11.48;60.54
9325;BME280;4701;51.566;6.776;2023-04-20T12:46:17;101370.28;;;11.60;60.10
9325;BME280;4701;51.566;6.776;2023-04-20T12:49:19;101361.09;;;11.71;59.70
9325;BME280;4701;51.566;6.776;2023-04-20T12:52:21;101363.41;;;11.84;59.29
9325;BME280;4701;51.566;6.776;2023-04-20T12:55:24;101360.81;;;11.99;58.90
9325;BME280;4701;51.566;6.776;2023-04-20T12:58:26;101357.41;;;12.14;58.75
9325;BME280;4701;51.566;6.776;2023-04-20T13:01:28;101370.09;;;12.30;58.04
9325;BME280;4701;51.566;6.776;2023-04-20T13:04:30;101361.97;;;12.45;56.86
9325;BME280;4701;51.566;6.776;2023-04-20T13:07:32;101353.59;;;12.62;56.03
9325;BME280;4701;51.566;6.776;2023-04-20T13:10:37;101347.66;;;12.75;55.48
9325;BME280;4701;51.566;6.776;2023-04-20T13:13:40;101348.50;;;12.86;55.17
9325;BME280;4701;51.566;6.776;2023-04-20T13:16:41;101337.34;;;12.98;54.95
9325;BME280;4701;51.566;6.776;2023-04-20T13:19:45;101347.78;;;13.06;54.47
9325;BME280;4701;51.566;6.776;2023-04-20T13:22:47;101348.59;;;13.11;53.35
9325;BME280;4701;51.566;6.776;2023-04-20T13:25:51;101346.75;;;13.17;53.52
9325;BME280;4701;51.566;6.776;2023-04-20T13:28:53;101337.72;;;13.21;53.35
9325;BME280;4701;51.566;6.776;2023-04-20T13:31:56;101346.25;;;13.30;53.53
9325;BME280;4701;51.566;6.776;2023-04-20T13:34:58;101340.50;;;13.37;53.06
9325;BME280;4701;51.566;6.776;2023-04-20T13:38:00;101339.44;;;13.43;51.72
9325;BME280;4701;51.566;6.776;2023-04-20T13:41:04;101343.25;;;13.42;50.85
9325;BME280;4701;51.566;6.776;2023-04-20T13:44:06;101340.53;;;13.42;50.96
9325;BME280;4701;51.566;6.776;2023-04-20T13:47:14;101348.19;;;13.40;50.72
9325;BME280;4701;51.566;6.776;2023-04-20T13:50:16;101334.50;;;13.35;50.82
9325;BME280;4701;51.566;6.776;2023-04-20T13:53:18;101337.75;;;13.32;51.05
9325;BME280;4701;51.566;6.776;2023-04-20T13:56:22;101335.56;;;13.29;50.96
9325;BME280;4701;51.566;6.776;2023-04-20T13:59:24;101327.59;;;13.27;50.41
9325;BME280;4701;51.566;6.776;2023-04-20T14:02:26;101327.91;;;13.25;50.61
9325;BME280;4701;51.566;6.776;2023-04-20T14:05:29;101332.81;;;13.23;50.38
9325;BME280;4701;51.566;6.776;2023-04-20T14:08:30;101313.09;;;13.21;50.40
9325;BME280;4701;51.566;6.776;2023-04-20T14:11:34;101313.91;;;13.22;50.82
9325;BME280;4701;51.566;6.776;2023-04-20T14:14:35;101310.66;;;13.25;50.85
9325;BME280;4701;51.566;6.776;2023-04-20T14:17:37;101319.94;;;13.29;50.33
9325;BME280;4701;51.566;6.776;2023-04-20T14:20:39;101304.38;;;13.35;50.15
9325;BME280;4701;51.566;6.776;2023-04-20T14:23:41;101301.38;;;13.41;49.54
9325;BME280;4701;51.566;6.776;2023-04-20T14:26:44;101306.31;;;13.49;49.71
9325;BME280;4701;51.566;6.776;2023-04-20T14:29:46;101308.50;;;13.57;49.97
9325;BME280;4701;51.566;6.776;2023-04-20T14:32:54;101309.34;;;13.68;49.95
9325;BME280;4701;51.566;6.776;2023-04-20T14:35:56;101323.31;;;13.77;50.01
9325;BME280;4701;51.566;6.776;2023-04-20T14:38:58;101326.31;;;13.85;48.97
9325;BME280;4701;51.566;6.776;2023-04-20T14:42:02;101315.91;;;13.92;49.48
9325;BME280;4701;51.566;6.776;2023-04-20T14:45:04;101317.53;;;13.98;49.05
9325;BME280;4701;51.566;6.776;2023-04-20T14:48:06;101324.94;;;14.03;48.97
9325;BME280;4701;51.566;6.776;2023-04-20T14:51:08;101332.59;;;14.06;48.72
9325;BME280;4701;51.566;6.776;2023-04-20T14:54:10;101321.63;;;14.06;48.38
9325;BME280;4701;51.566;6.776;2023-04-20T14:57:13;101316.16;;;14.06;48.78
9325;BME280;4701;51.566;6.776;2023-04-20T15:00:16;101312.59;;;14.06;48.48
9325;BME280;4701;51.566;6.776;2023-04-20T15:03:18;101307.66;;;14.08;47.90
9325;BME280;4701;51.566;6.776;2023-04-20T15:06:20;101301.09;;;14.09;47.58
9325;BME280;4701;51.566;6.776;2023-04-20T15:09:21;101302.47;;;14.11;46.93
9325;BME280;4701;51.566;6.776;2023-04-20T15:12:25;101306.81;;;14.12;46.57
9325;BME280;4701;51.566;6.776;2023-04-20T15:15:27;101296.69;;;14.13;47.40
9325;BME280;4701;51.566;6.776;2023-04-20T15:18:29;101287.34;;;14.14;47.39
9325;BME280;4701;51.566;6.776;2023-04-20T15:21:31;101289.00;;;14.15;47.47
9325;BME280;4701;51.566;6.776;2023-04-20T15:24:33;101287.09;;;14.15;47.71
9325;BME280;4701;51.566;6.776;2023-04-20T15:27:36;101281.34;;;14.17;46.97
9325;BME280;4701;51.566;6.776;2023-04-20T15:30:38;101284.06;;;14.17;46.55
9325;BME280;4701;51.566;6.776;2023-04-20T15:33:40;101278.88;;;14.20;46.64
9325;BME280;4701;51.566;6.776;2023-04-20T15:36:43;101287.63;;;14.22;46.02
9325;BME280;4701;51.566;6.776;2023-04-20T15:39:44;101287.34;;;14.24;46.23
9325;BME280;4701;51.566;6.776;2023-04-20T15:42:48;101286.78;;;14.22;46.34
9325;BME280;4701;51.566;6.776;2023-04-20T15:45:49;101278.88;;;14.20;46.41
9325;BME280;4701;51.566;6.776;2023-04-20T15:48:51;101269.81;;;14.15;46.83
9325;BME280;4701;51.566;6.776;2023-04-20T15:51:53;101273.66;;;14.09;47.16
9325;BME280;4701;51.566;6.776;2023-04-20T15:54:55;101279.16;;;14.03;47.45
9325;BME280;4701;51.566;6.776;2023-04-20T15:57:58;101266.56;;;13.97;47.85
9325;BME280;4701;51.566;6.776;2023-04-20T16:01:00;101270.13;;;13.93;47.58
9325;BME280;4701;51.566;6.776;2023-04-20T16:04:03;101260.53;;;13.90;48.39
9325;BME280;4701;51.566;6.776;2023-04-20T16:07:05;101255.34;;;13.89;48.79
9325;BME280;4701;51.566;6.776;2023-04-20T16:10:09;101265.19;;;13.90;48.75
9325;BME280;4701;51.566;6.776;2023-04-20T16:13:12;101256.97;;;13.90;48.69
9325;BME280;4701;51.566;6.776;2023-04-20T16:16:14;101256.16;;;13.94;48.30
9325;BME280;4701;51.566;6.776;2023-04-20T16:19:16;101263.00;;;13.97;48.09
9325;BME280;4701;51.566;6.776;2023-04-20T16:22:18;101268.19;;;13.98;47.91
9325;BME280;4701;51.566;6.776;2023-04-20T16:25:20;101263.81;;;13.97;48.09
9325;BME280;4701;51.566;6.776;2023-04-20T16:28:24;101268.75;;;13.95;47.60
9325;BME280;4701;51.566;6.776;2023-04-20T16:31:26;101273.41;;;13.90;48.05
9325;BME280;4701;51.566;6.776;2023-04-20T16:34:28;101272.63;;;13.84;48.29
9325;BME280;4701;51.566;6.776;2023-04-20T16:37:31;101281.13;;;13.78;48.22
9325;BME280;4701;51.566;6.776;2023-04-20T16:40:34;101279.47;;;13.72;48.28
9325;BME280;4701;51.566;6.776;2023-04-20T16:43:38;101284.41;;;13.64;48.53
9325;BME280;4701;51.566;6.776;2023-04-20T16:46:40;101286.31;;;13.59;48.58
9325;BME280;4701;51.566;6.776;2023-04-20T16:49:42;101278.09;;;13.54;48.89
9325;BME280;4701;51.566;6.776;2023-04-20T16:52:44;101282.22;;;13.51;49.35
9325;BME280;4701;51.566;6.776;2023-04-20T16:55:45;101275.34;;;13.49;49.50
9325;BME280;4701;51.566;6.776;2023-04-20T16:58:49;101278.38;;;13.47;49.64
9325;BME280;4701;51.566;6.776;2023-04-20T17:01:50;101274.53;;;13.48;49.49
9325;BME280;4701;51.566;6.776;2023-04-20T17:04:52;101280.56;;;13.50;49.70
9325;BME280;4701;51.566;6.776;2023-04-20T17:07:54;101279.19;;;13.53;49.71
9325;BME280;4701;51.566;6.776;2023-04-20T17:10:56;101288.78;;;13.55;49.83
9325;BME280;4701;51.566;6.776;2023-04-20T17:14:00;101278.09;;;13.59;49.44
9325;BME280;4701;51.566;6.776;2023-04-20T17:17:01;101273.16;;;13.61;49.04
9325;BME280;4701;51.566;6.776;2023-04-20T17:20:04;101280.00;;;13.63;48.99
9325;BME280;4701;51.566;6.776;2023-04-20T17:23:07;101284.41;;;13.64;49.01
9325;BME280;4701;51.566;6.776;2023-04-20T17:26:08;101274.25;;;13.65;49.16
9325;BME280;4701;51.566;6.776;2023-04-20T17:29:12;101288.22;;;13.63;49.23
9325;BME280;4701;51.566;6.776;2023-04-20T17:32:14;101288.78;;;13.60;48.89
9325;BME280;4701;51.566;6.776;2023-04-20T17:35:16;101293.16;;;13.56;48.87
9325;BME280;4701;51.566;6.776;2023-04-20T17:38:18;101289.34;;;13.52;48.41
9325;BME280;4701;51.566;6.776;2023-04-20T17:41:20;101294.78;;;13.47;48.20
9325;BME280;4701;51.566;6.776;2023-04-20T17:44:23;101296.41;;;13.38;48.39
9325;BME280;4701;51.566;6.776;2023-04-20T17:47:25;101307.91;;;13.30;48.68
9325;BME280;4701;51.566;6.776;2023-04-20T17:50:27;101315.56;;;13.23;49.43
9325;BME280;4701;51.566;6.776;2023-04-20T17:53:29;101318.00;;;13.14;49.55
9325;BME280;4701;51.566;6.776;2023-04-20T17:56:31;101322.31;;;13.05;49.60
9325;BME280;4701;51.566;6.776;2023-04-20T17:59:34;101323.94;;;12.96;49.67
9325;BME280;4701;51.566;6.776;2023-04-20T18:02:36;101324.72;;;12.86;49.70
9325;BME280;4701;51.566;6.776;2023-04-20T18:05:38;101332.88;;;12.76;49.58
9325;BME280;4701;51.566;6.776;2023-04-20T18:08:40;101343.78;;;12.66;49.76
9325;BME280;4701;51.566;6.776;2023-04-20T18:11:42;101343.47;;;12.58;49.81
9325;BME280;4701;51.566;6.776;2023-04-20T18:14:45;101348.63;;;12.49;50.23
9325;BME280;4701;51.566;6.776;2023-04-20T18:17:47;101348.28;;;12.40;50.93
9325;BME280;4701;51.566;6.776;2023-04-20T18:20:49;101346.06;;;12.32;51.19
9325;BME280;4701;51.566;6.776;2023-04-20T18:23:51;101358.31;;;12.25;51.50
9325;BME280;4701;51.566;6.776;2023-04-20T18:26:54;101349.47;;;12.18;51.75
9325;BME280;4701;51.566;6.776;2023-04-20T18:29:58;101351.88;;;12.09;52.43
9325;BME280;4701;51.566;6.776;2023-04-20T18:33:00;101354.59;;;12.04;53.34
9325;BME280;4701;51.566;6.776;2023-04-20T18:36:02;101351.81;;;11.99;54.04
9325;BME280;4701;51.566;6.776;2023-04-20T18:39:04;101361.03;;;11.93;54.59
9325;BME280;4701;51.566;6.776;2023-04-20T18:42:08;101373.84;;;11.87;55.35
9325;BME280;4701;51.566;6.776;2023-04-20T18:45:12;101369.13;;;11.83;55.65
9325;BME280;4701;51.566;6.776;2023-04-20T18:48:13;101371.84;;;11.78;55.87
9325;BME280;4701;51.566;6.776;2023-04-20T18:51:15;101367.97;;;11.73;56.76
9325;BME280;4701;51.566;6.776;2023-04-20T18:54:17;101368.16;;;11.67;57.02
9325;BME280;4701;51.566;6.776;2023-04-20T18:57:19;101374.41;;;11.62;57.29
9325;BME280;4701;51.566;6.776;2023-04-20T19:00:26;101366.13;;;11.57;57.51
9325;BME280;4701;51.566;6.776;2023-04-20T19:03:29;101373.22;;;11.53;58.02
9325;BME280;4701;51.566;6.776;2023-04-20T19:06:31;101370.44;;;11.48;58.07
9325;BME280;4701;51.566;6.776;2023-04-20T19:09:33;101357.56;;;11.44;58.33
9325;BME280;4701;51.566;6.776;2023-04-20T19:12:34;101361.06;;;11.39;58.44
9325;BME280;4701;51.566;6.776;2023-04-20T19:15:39;101362.66;;;11.35;58.53
9325;BME280;4701;51.566;6.776;2023-04-20T19:18:41;101342.69;;;11.29;58.63
9325;BME280;4701;51.566;6.776;2023-04-20T19:21:43;101349.47;;;11.27;58.78
9325;BME280;4701;51.566;6.776;2023-04-20T19:24:45;101349.13;;;11.23;58.76
9325;BME280;4701;51.566;6.776;2023-04-20T19:27:47;101348.00;;;11.19;58.91
9325;BME280;4701;51.566;6.776;2023-04-20T19:30:50;101349.59;;;11.15;59.24
9325;BME280;4701;51.566;6.776;2023-04-20T19:33:52;101343.00;;;11.11;59.49
9325;BME280;4701;51.566;6.776;2023-04-20T19:36:54;101345.41;;;11.08;59.33
9325;BME280;4701;51.566;6.776;2023-04-20T19:39:56;101345.13;;;11.04;59.59
9325;BME280;4701;51.566;6.776;2023-04-20T19:42:58;101338.50;;;11.00;59.37
9325;BME280;4701;51.566;6.776;2023-04-20T19:46:01;101337.94;;;10.98;59.52
9325;BME280;4701;51.566;6.776;2023-04-20T19:49:03;101333.00;;;10.95;59.62
9325;BME280;4701;51.566;6.776;2023-04-20T19:52:05;101322.59;;;10.92;60.05
9325;BME280;4701;51.566;6.776;2023-04-20T19:55:08;101325.81;;;10.89;59.96
9325;BME280;4701;51.566;6.776;2023-04-20T19:58:10;101333.72;;;10.85;60.21
9325;BME280;4701;51.566;6.776;2023-04-20T20:01:14;101326.03;;;10.82;60.29
9325;BME280;4701;51.566;6.776;2023-04-20T20:04:16;101331.19;;;10.79;60.99
9325;BME280;4701;51.566;6.776;2023-04-20T20:07:19;101325.41;;;10.75;60.80
9325;BME280;4701;51.566;6.776;2023-04-20T20:10:21;101329.44;;;10.73;60.97
9325;BME280;4701;51.566;6.776;2023-04-20T20:13:23;101321.78;;;10.70;60.96
9325;BME280;4701;51.566;6.776;2023-04-20T20:16:27;101326.91;;;10.66;61.80
9325;BME280;4701;51.566;6.776;2023-04-20T20:19:29;101315.44;;;10.64;61.70
9325;BME280;4701;51.566;6.776;2023-04-20T20:22:31;101306.13;;;10.60;61.76
9325;BME280;4701;51.566;6.776;2023-04-20T20:25:33;101292.75;;;10.58;61.41
9325;BME280;4701;51.566;6.776;2023-04-20T20:28:34;101284.22;;;10.55;62.02
9325;BME280;4701;51.566;6.776;2023-04-20T20:31:38;101285.34;;;10.54;62.23
9325;BME280;4701;51.566;6.776;2023-04-20T20:34:40;101272.19;;;10.51;62.30
9325;BME280;4701;51.566;6.776;2023-04-20T20:37:42;101274.34;;;10.49;62.38
9325;BME280;4701;51.566;6.776;2023-04-20T20:40:45;101280.31;;;10.46;62.67
9325;BME280;4701;51.566;6.776;2023-04-20T20:43:49;101274.88;;;10.46;63.31
9325;BME280;4701;51.566;6.776;2023-04-20T20:46:53;101280.56;;;10.44;63.79
9325;BME280;4701;51.566;6.776;2023-04-20T20:49:55;101294.44;;;10.43;63.66
9325;BME280;4701;51.566;6.776;2023-04-20T20:52:57;101288.41;;;10.41;63.57
9325;BME280;4701;51.566;6.776;2023-04-20T20:55:59;101275.03;;;10.39;64.37
9325;BME280;4701;51.566;6.776;2023-04-20T20:59:01;101286.22;;;10.38;64.85
